Time;durP1;ratioP1;P1;durP2;ratioP2;P2;SDS_P1;SDS_P2;PMS_P1;PMS_P2;Temp;Humidity;BMP_temperature;BMP_pressure;BME280_temperature;BME280_humidity;BME280_pressure;Samples;Min_cycle;Max_cycle;Signal;HPM_P1;HPM_P2
2023/07/25 00:00:52;;;;;;;;;;;12.00;99.90;;;;;;5074393;28;19920;-79
2023/07/25 00:03:18;;;;;;;;;;;12.00;99.90;;;;;;5092269;28;19973;-80
2023/07/25 00:05:45;;;;;;;;;;;12.00;99.90;;;;;;5091233;28;19922;-77
2023/07/25 00:08:10;;;;;;;;;;;12.00;99.90;;;;;;5091938;28;19970;-77
2023/07/25 00:10:36;;;;;;;;;;;12.00;99.90;;;;;;5110848;28;19951;-78
2023/07/25 00:13:01;;;;;;;;;;;12.20;99.90;;;;;;5095171;28;19920;-74
2023/07/25 00:15:27;;;;;;;;;;;12.00;99.90;;;;;;5112042;28;19923;-76
2023/07/25 00:17:52;;;;;;;;;;;12.10;99.90;;;;;;5111726;28;19975;-75
2023/07/25 00:20:18;;;;;;;;;;;12.10;99.90;;;;;;5111981;28;20315;-80
2023/07/25 00:22:44;;;;;;;;;;;12.10;99.90;;;;;;5112727;28;19927;-77
2023/07/25 00:25:09;;;;;;;;;;;12.10;99.90;;;;;;5112250;28;20432;-77
2023/07/25 00:27:38;;;;;;;;;;;12.20;99.90;;;;;;5113611;28;19923;-78
2023/07/25 00:30:04;;;;;;;;;;;12.20;99.90;;;;;;5113011;28;19931;-81
2023/07/25 00:32:30;;;;;;;;;;;12.20;99.90;;;;;;5111941;28;19978;-77
2023/07/25 00:34:55;;;;;;;;;;;12.20;99.90;;;;;;5094223;28;19974;-77
2023/07/25 00:37:21;;;;;;;;;;;12.20;99.90;;;;;;5111886;28;19927;-77
2023/07/25 00:39:53;;;;;;;;;;;12.30;99.90;;;;;;5096168;28;19952;-77
2023/07/25 00:42:19;;;;;;;;;;;12.30;99.90;;;;;;5113184;27;20266;-78
2023/07/25 00:44:45;;;;;;;;;;;12.30;99.90;;;;;;5111745;28;19934;-79
2023/07/25 00:47:10;;;;;;;;;;;12.30;99.90;;;;;;5111529;28;20334;-80
2023/07/25 00:49:36;;;;;;;;;;;12.30;99.90;;;;;;5094750;28;19924;-78
2023/07/25 00:52:01;;;;;;;;;;;12.30;99.90;;;;;;5094385;28;19926;-80
2023/07/25 00:54:27;;;;;;;;;;;12.20;99.90;;;;;;5111825;28;19920;-74
2023/07/25 00:56:53;;;;;;;;;;;12.20;99.90;;;;;;5111330;28;19977;-81
2023/07/25 00:59:19;;;;;;;;;;;12.20;99.90;;;;;;5111592;28;19924;-78
2023/07/25 01:01:44;;;;;;;;;;;12.10;99.90;;;;;;5094509;28;20265;-76
2023/07/25 01:04:16;;;;;;;;;;;12.20;99.90;;;;;;5111678;28;19947;-78
2023/07/25 01:06:42;;;;;;;;;;;12.10;99.90;;;;;;5111455;28;19920;-79
2023/07/25 01:09:10;;;;;;;;;;;12.00;99.90;;;;;;5110464;28;19924;-81
2023/07/25 01:11:36;;;;;;;;;;;12.00;99.90;;;;;;5112446;28;19978;-79
2023/07/25 01:14:02;;;;;;;;;;;12.00;99.90;;;;;;5110975;28;19967;-78
2023/07/25 01:16:28;;;;;;;;;;;12.00;99.90;;;;;;5094058;28;19973;-77
2023/07/25 01:18:54;;;;;;;;;;;12.00;99.90;;;;;;5094520;28;19923;-76
2023/07/25 01:21:21;;;;;;;;;;;12.00;99.90;;;;;;5111517;28;19923;-79
2023/07/25 01:23:47;;;;;;;;;;;12.00;99.90;;;;;;5111095;28;19920;-78
2023/07/25 01:26:13;;;;;;;;;;;12.10;99.90;;;;;;5111128;28;20011;-78
2023/07/25 01:28:38;;;;;;;;;;;12.10;99.90;;;;;;5111230;28;19923;-79
2023/07/25 01:31:04;;;;;;;;;;;12.20;99.90;;;;;;5094260;28;19920;-77
2023/07/25 01:33:30;;;;;;;;;;;12.30;99.90;;;;;;5093998;28;20654;-76
2023/07/25 01:35:59;;;;;;;;;;;12.40;99.90;;;;;;5112348;28;19927;-75
2023/07/25 01:38:25;;;;;;;;;;;12.50;99.90;;;;;;5111230;28;20365;-76
2023/07/25 01:40:50;;;;;;;;;;;12.50;99.90;;;;;;5110372;28;19959;-77
2023/07/25 01:43:21;;;;;;;;;;;12.60;99.90;;;;;;5111984;28;19919;-78
2023/07/25 01:45:46;;;;;;;;;;;12.70;99.90;;;;;;5112761;28;19963;-74
2023/07/25 01:48:12;;;;;;;;;;;12.70;99.90;;;;;;5094121;28;19967;-74
2023/07/25 01:50:40;;;;;;;;;;;12.80;99.90;;;;;;5110934;28;19927;-78
2023/07/25 01:53:06;;;;;;;;;;;12.70;99.90;;;;;;5090426;28;19924;-79
2023/07/25 01:55:32;;;;;;;;;;;12.70;99.90;;;;;;5092757;28;20082;-75
2023/07/25 01:57:58;;;;;;;;;;;12.70;99.90;;;;;;5060739;28;19924;-80
2023/07/25 02:00:23;;;;;;;;;;;12.70;99.90;;;;;;5078598;28;20011;-76
2023/07/25 02:02:51;;;;;;;;;;;12.70;99.90;;;;;;5112787;28;19993;-76
2023/07/25 02:05:17;;;;;;;;;;;12.60;99.90;;;;;;5114942;28;19927;-77
2023/07/25 02:07:43;;;;;;;;;;;12.60;99.90;;;;;;5116004;28;19927;-77
2023/07/25 02:10:08;;;;;;;;;;;12.60;99.90;;;;;;5098105;28;20289;-78
2023/07/25 02:12:34;;;;;;;;;;;12.60;99.90;;;;;;5115489;28;19930;-77
2023/07/25 02:15:00;;;;;;;;;;;12.60;99.90;;;;;;5115736;28;19919;-75
2023/07/25 02:17:25;;;;;;;;;;;12.50;99.90;;;;;;5114753;28;20399;-80
2023/07/25 02:19:54;;;;;;;;;;;12.50;99.90;;;;;;5114544;28;20436;-79
2023/07/25 02:22:19;;;;;;;;;;;12.50;99.90;;;;;;5115134;28;19920;-78
2023/07/25 02:24:47;;;;;;;;;;;12.50;99.90;;;;;;5114508;28;20353;-80
2023/07/25 02:27:13;;;;;;;;;;;12.50;99.90;;;;;;5113841;28;20436;-81
2023/07/25 02:29:38;;;;;;;;;;;12.60;99.90;;;;;;5115204;28;20019;-76
2023/07/25 02:32:04;;;;;;;;;;;12.60;99.90;;;;;;5115017;28;20399;-77
2023/07/25 02:34:33;;;;;;;;;;;12.70;99.90;;;;;;5116202;28;19974;-75
2023/07/25 02:36:58;;;;;;;;;;;12.80;99.90;;;;;;5097224;28;19962;-77
2023/07/25 02:39:24;;;;;;;;;;;12.90;99.90;;;;;;5097350;28;19965;-78
2023/07/25 02:41:49;;;;;;;;;;;12.90;99.90;;;;;;5114865;28;20006;-82
2023/07/25 02:44:15;;;;;;;;;;;12.90;99.90;;;;;;5115726;28;19923;-80
2023/07/25 02:46:41;;;;;;;;;;;13.00;99.90;;;;;;5115151;28;20419;-77
2023/07/25 02:49:06;;;;;;;;;;;12.90;99.90;;;;;;5094854;28;19924;-76
2023/07/25 02:51:32;;;;;;;;;;;13.00;99.90;;;;;;5114721;28;19927;-77
2023/07/25 02:53:57;;;;;;;;;;;13.00;99.90;;;;;;5096925;28;19920;-80
2023/07/25 02:56:25;;;;;;;;;;;13.00;99.90;;;;;;5113979;28;19955;-80
2023/07/25 02:58:51;;;;;;;;;;;13.00;99.90;;;;;;5114189;28;19924;-77
2023/07/25 03:01:22;;;;;;;;;;;13.00;99.90;;;;;;5113617;28;19968;-77
2023/07/25 03:03:48;;;;;;;;;;;13.10;99.90;;;;;;5097001;28;20010;-78
2023/07/25 03:06:13;;;;;;;;;;;13.10;99.90;;;;;;5113336;28;20912;-74
2023/07/25 03:08:39;;;;;;;;;;;13.10;99.90;;;;;;5112699;28;20387;-75
2023/07/25 03:11:05;;;;;;;;;;;13.20;99.90;;;;;;5114256;28;20418;-76
2023/07/25 03:13:33;;;;;;;;;;;13.20;99.90;;;;;;5115997;28;20027;-77
2023/07/25 03:15:59;;;;;;;;;;;13.30;99.90;;;;;;5112923;28;20415;-75
2023/07/25 03:18:24;;;;;;;;;;;13.30;99.90;;;;;;5096957;28;19919;-79
2023/07/25 03:20:50;;;;;;;;;;;13.30;99.90;;;;;;5114116;28;19927;-76
2023/07/25 03:23:15;;;;;;;;;;;13.30;99.90;;;;;;5097223;28;19950;-75
2023/07/25 03:25:41;;;;;;;;;;;13.20;99.90;;;;;;5115243;28;19920;-79
2023/07/25 03:28:08;;;;;;;;;;;13.10;99.90;;;;;;5114361;28;19977;-81
2023/07/25 03:30:33;;;;;;;;;;;13.10;99.90;;;;;;5097060;28;19920;-76
2023/07/25 03:33:00;;;;;;;;;;;13.00;99.90;;;;;;5113631;28;20377;-77
2023/07/25 03:35:26;;;;;;;;;;;13.00;99.90;;;;;;5115319;28;20258;-78
2023/07/25 03:37:51;;;;;;;;;;;12.90;99.90;;;;;;5096776;28;19924;-79
2023/07/25 03:40:17;;;;;;;;;;;12.90;99.90;;;;;;5099256;28;20018;-80
2023/07/25 03:42:42;;;;;;;;;;;12.90;99.90;;;;;;5117007;28;19920;-75
2023/07/25 03:45:09;;;;;;;;;;;12.90;99.90;;;;;;5117385;28;19920;-78
2023/07/25 03:47:35;;;;;;;;;;;12.80;99.90;;;;;;5115605;28;19920;-79
2023/07/25 03:50:01;;;;;;;;;;;12.80;99.90;;;;;;5096062;28;19931;-79
2023/07/25 03:52:28;;;;;;;;;;;12.70;99.90;;;;;;5113530;28;19920;-77
2023/07/25 03:54:53;;;;;;;;;;;12.80;99.90;;;;;;5112778;28;20365;-75
2023/07/25 03:57:25;;;;;;;;;;;12.70;99.90;;;;;;5113850;28;19935;-79
2023/07/25 03:59:50;;;;;;;;;;;12.70;99.90;;;;;;5113268;28;19923;-77
2023/07/25 04:02:16;;;;;;;;;;;12.60;99.90;;;;;;5113671;28;19926;-76
2023/07/25 04:04:41;;;;;;;;;;;12.60;99.90;;;;;;5113555;28;19931;-76
2023/07/25 04:07:07;;;;;;;;;;;12.60;99.90;;;;;;5112246;28;19920;-76
2023/07/25 04:09:36;;;;;;;;;;;12.50;99.90;;;;;;5112917;28;19975;-76
2023/07/25 04:12:01;;;;;;;;;;;12.40;99.90;;;;;;5095992;28;20450;-76
2023/07/25 04:14:27;;;;;;;;;;;12.30;99.90;;;;;;5114342;28;20335;-76
2023/07/25 04:16:52;;;;;;;;;;;12.30;99.90;;;;;;5113773;28;19920;-83
2023/07/25 04:19:18;;;;;;;;;;;12.20;99.90;;;;;;5113814;28;19920;-80
2023/07/25 04:21:44;;;;;;;;;;;12.20;99.90;;;;;;5114986;28;20373;-77
2023/07/25 04:24:10;;;;;;;;;;;12.20;99.90;;;;;;5114634;28;19927;-77
2023/07/25 04:26:36;;;;;;;;;;;12.20;99.90;;;;;;5080381;28;19924;-76
2023/07/25 04:29:01;;;;;;;;;;;12.20;99.90;;;;;;5113806;28;19924;-79
2023/07/25 04:31:27;;;;;;;;;;;12.30;99.90;;;;;;5096176;28;19969;-75
2023/07/25 04:33:53;;;;;;;;;;;12.40;99.90;;;;;;5115491;28;19985;-77
2023/07/25 04:36:18;;;;;;;;;;;12.50;99.90;;;;;;5113124;28;19931;-79
2023/07/25 04:38:44;;;;;;;;;;;12.60;99.90;;;;;;5114847;28;19920;-77
2023/07/25 04:41:09;;;;;;;;;;;12.60;99.90;;;;;;5113666;28;20317;-77
2023/07/25 04:43:35;;;;;;;;;;;12.70;99.90;;;;;;5097263;28;19927;-77
2023/07/25 04:46:01;;;;;;;;;;;12.70;99.90;;;;;;5098222;28;19924;-79
2023/07/25 04:48:26;;;;;;;;;;;12.70;99.90;;;;;;5097424;28;20361;-79
2023/07/25 04:50:55;;;;;;;;;;;12.80;99.90;;;;;;5114727;28;19926;-79
2023/07/25 04:53:20;;;;;;;;;;;12.80;99.90;;;;;;5095617;28;20291;-74
2023/07/25 04:55:46;;;;;;;;;;;12.90;99.90;;;;;;5112998;28;19919;-77
2023/07/25 04:58:12;;;;;;;;;;;13.00;99.90;;;;;;5115331;28;19924;-78
2023/07/25 05:00:40;;;;;;;;;;;13.10;99.90;;;;;;5117285;28;19919;-79
2023/07/25 05:03:08;;;;;;;;;;;13.30;99.90;;;;;;5079360;28;20022;-77
2023/07/25 05:05:34;;;;;;;;;;;13.40;99.90;;;;;;5095192;28;20289;-77
2023/07/25 05:08:01;;;;;;;;;;;13.40;99.90;;;;;;5113722;28;19927;-79
2023/07/25 05:10:26;;;;;;;;;;;13.40;99.90;;;;;;5113136;28;19981;-79
2023/07/25 05:12:52;;;;;;;;;;;13.40;99.90;;;;;;5114138;28;19946;-80
2023/07/25 05:15:17;;;;;;;;;;;13.40;99.90;;;;;;5094089;28;19923;-75
2023/07/25 05:17:43;;;;;;;;;;;13.40;99.90;;;;;;5111541;28;19920;-78
2023/07/25 05:20:09;;;;;;;;;;;13.40;99.90;;;;;;5111528;28;19927;-78
2023/07/25 05:22:35;;;;;;;;;;;13.30;99.90;;;;;;5112042;28;19920;-76
2023/07/25 05:25:00;;;;;;;;;;;13.30;99.90;;;;;;5112067;28;19919;-79
2023/07/25 05:27:26;;;;;;;;;;;13.30;99.90;;;;;;5112474;28;19920;-81
2023/07/25 05:29:52;;;;;;;;;;;13.20;99.90;;;;;;5116148;28;19935;-75
2023/07/25 05:32:17;;;;;;;;;;;13.20;99.90;;;;;;5117939;28;19920;-76
2023/07/25 05:34:43;;;;;;;;;;;13.20;99.90;;;;;;5098720;28;19924;-78
2023/07/25 05:37:08;;;;;;;;;;;13.20;99.90;;;;;;5102145;28;19924;-79
2023/07/25 05:39:34;;;;;;;;;;;13.30;99.90;;;;;;5078207;28;20377;-80
2023/07/25 05:42:00;;;;;;;;;;;13.30;99.90;;;;;;5096754;28;19924;-76
2023/07/25 05:44:25;;;;;;;;;;;13.30;99.90;;;;;;5096115;28;19928;-81
2023/07/25 05:46:51;;;;;;;;;;;13.30;99.90;;;;;;5078224;28;19966;-79
2023/07/25 05:49:17;;;;;;;;;;;13.20;99.90;;;;;;5095454;28;20712;-79
2023/07/25 05:51:42;;;;;;;;;;;13.20;99.90;;;;;;5094939;28;19920;-76
2023/07/25 05:54:08;;;;;;;;;;;13.10;99.90;;;;;;5094671;28;19924;-78
2023/07/25 05:56:41;;;;;;;;;;;13.10;99.90;;;;;;5095163;28;20012;-79
2023/07/25 05:59:06;;;;;;;;;;;13.20;99.90;;;;;;5094288;28;19924;-79
2023/07/25 06:01:32;;;;;;;;;;;13.30;99.90;;;;;;5094344;28;20552;-79
2023/07/25 06:03:57;;;;;;;;;;;13.30;99.90;;;;;;5094862;28;19966;-77
2023/07/25 06:06:23;;;;;;;;;;;13.40;99.90;;;;;;5094358;28;19927;-74
2023/07/25 06:08:48;;;;;;;;;;;13.60;99.90;;;;;;5094862;28;19931;-80
2023/07/25 06:11:15;;;;;;;;;;;13.70;99.90;;;;;;5077126;28;20372;-76
2023/07/25 06:13:41;;;;;;;;;;;13.70;99.90;;;;;;5094615;28;20016;-77
2023/07/25 06:16:06;;;;;;;;;;;13.80;99.90;;;;;;5094445;28;20006;-79
2023/07/25 06:18:38;;;;;;;;;;;13.90;99.90;;;;;;5079093;28;19928;-75
2023/07/25 06:21:13;;;;;;;;;;;13.90;99.90;;;;;;5096270;28;19920;-78
2023/07/25 06:23:38;;;;;;;;;;;14.00;99.90;;;;;;5094920;28;20022;-77
2023/07/25 06:26:04;;;;;;;;;;;14.00;99.90;;;;;;5077508;28;19927;-76
2023/07/25 06:28:29;;;;;;;;;;;14.20;99.90;;;;;;5094272;28;19920;-80
2023/07/25 06:30:55;;;;;;;;;;;14.20;99.90;;;;;;5094308;28;20004;-78
2023/07/25 06:33:20;;;;;;;;;;;14.30;99.90;;;;;;5094420;28;19924;-79
2023/07/25 06:35:46;;;;;;;;;;;14.40;99.90;;;;;;5094351;28;19920;-81
2023/07/25 06:38:11;;;;;;;;;;;14.50;99.90;;;;;;5078986;28;19920;-78
2023/07/25 06:40:37;;;;;;;;;;;14.60;99.90;;;;;;5095144;28;20323;-80
2023/07/25 06:43:03;;;;;;;;;;;14.70;99.90;;;;;;5094028;28;19969;-79
2023/07/25 06:45:29;;;;;;;;;;;14.70;99.90;;;;;;5077064;28;20304;-81
2023/07/25 06:47:55;;;;;;;;;;;14.80;99.90;;;;;;5077094;28;20763;-80
2023/07/25 06:50:21;;;;;;;;;;;14.90;99.90;;;;;;5104303;28;20015;-79
2023/07/25 06:52:49;;;;;;;;;;;15.00;99.90;;;;;;5115973;28;19920;-79
2023/07/25 06:55:18;;;;;;;;;;;15.10;99.90;;;;;;5080656;28;20429;-74
2023/07/25 06:57:45;;;;;;;;;;;15.20;99.90;;;;;;5097227;28;19981;-77
2023/07/25 07:00:11;;;;;;;;;;;15.30;99.90;;;;;;5098038;28;20385;-76
2023/07/25 07:02:40;;;;;;;;;;;15.40;99.90;;;;;;5115016;28;19923;-76
2023/07/25 07:05:06;;;;;;;;;;;15.50;99.90;;;;;;5115530;28;20419;-77
2023/07/25 07:07:32;;;;;;;;;;;15.60;99.90;;;;;;5114911;28;19931;-77
2023/07/25 07:09:58;;;;;;;;;;;15.50;99.90;;;;;;5097602;28;19924;-79
2023/07/25 07:12:25;;;;;;;;;;;15.50;99.90;;;;;;5114995;28;20054;-75
2023/07/25 07:14:51;;;;;;;;;;;15.50;99.90;;;;;;5115735;28;20380;-78
2023/07/25 07:17:20;;;;;;;;;;;15.50;99.90;;;;;;5115591;28;19920;-78
2023/07/25 07:19:45;;;;;;;;;;;15.50;99.90;;;;;;5114838;28;19930;-74
2023/07/25 07:22:11;;;;;;;;;;;15.50;99.90;;;;;;5114982;28;19996;-77
2023/07/25 07:24:36;;;;;;;;;;;15.60;99.90;;;;;;5080024;28;19953;-78
2023/07/25 07:27:03;;;;;;;;;;;15.80;99.90;;;;;;5113194;28;20584;-80
2023/07/25 07:29:29;;;;;;;;;;;16.00;99.90;;;;;;5083880;28;19928;-77
2023/07/25 07:31:54;;;;;;;;;;;16.20;99.90;;;;;;5076282;28;19924;-77
2023/07/25 07:34:20;;;;;;;;;;;16.30;99.90;;;;;;5092194;28;19924;-77
2023/07/25 07:36:46;;;;;;;;;;;16.40;99.90;;;;;;5075915;28;19978;-77
2023/07/25 07:39:11;;;;;;;;;;;16.50;99.90;;;;;;5093391;28;19973;-78
2023/07/25 07:41:37;;;;;;;;;;;16.50;99.90;;;;;;5093033;28;19981;-79
2023/07/25 07:44:05;;;;;;;;;;;16.60;99.90;;;;;;5092989;28;20339;-78
2023/07/25 07:46:31;;;;;;;;;;;16.60;99.90;;;;;;5093634;28;20395;-76
2023/07/25 07:48:57;;;;;;;;;;;16.50;99.90;;;;;;5092485;28;19924;-79
2023/07/25 07:51:23;;;;;;;;;;;16.40;99.90;;;;;;5091200;28;19928;-78
2023/07/25 07:53:49;;;;;;;;;;;16.40;99.90;;;;;;5092147;28;20369;-80
2023/07/25 07:56:18;;;;;;;;;;;16.50;99.90;;;;;;5091506;28;19997;-78
2023/07/25 07:58:44;;;;;;;;;;;16.80;99.90;;;;;;5092548;28;19928;-81
2023/07/25 08:01:17;;;;;;;;;;;17.00;99.90;;;;;;5092432;28;19931;-77
2023/07/25 08:03:43;;;;;;;;;;;17.20;99.90;;;;;;5075231;28;20360;-77
2023/07/25 08:06:09;;;;;;;;;;;17.00;99.90;;;;;;5058347;28;19959;-77
2023/07/25 08:08:35;;;;;;;;;;;16.90;99.90;;;;;;5075261;28;19963;-78
2023/07/25 08:11:03;;;;;;;;;;;16.80;99.90;;;;;;5091997;28;19920;-78
2023/07/25 08:13:29;;;;;;;;;;;16.80;99.90;;;;;;5091414;28;20424;-80
2023/07/25 08:16:01;;;;;;;;;;;16.90;99.90;;;;;;5092670;28;19989;-80
2023/07/25 08:18:27;;;;;;;;;;;16.90;99.90;;;;;;5075373;28;20331;-78
2023/07/25 08:20:54;;;;;;;;;;;17.10;99.90;;;;;;5092534;28;19969;-78
2023/07/25 08:23:20;;;;;;;;;;;17.20;99.90;;;;;;5091421;28;19924;-78
2023/07/25 08:25:46;;;;;;;;;;;17.30;99.90;;;;;;5104027;28;19924;-81
2023/07/25 08:28:11;;;;;;;;;;;17.30;99.90;;;;;;5111889;28;19920;-79
2023/07/25 08:30:37;;;;;;;;;;;17.40;99.90;;;;;;5077291;28;19939;-79
2023/07/25 08:33:04;;;;;;;;;;;17.50;99.90;;;;;;5095517;28;19923;-80
2023/07/25 08:35:30;;;;;;;;;;;17.70;99.90;;;;;;5094842;28;20011;-82
2023/07/25 08:37:55;;;;;;;;;;;17.70;99.90;;;;;;5112282;28;20010;-78
2023/07/25 08:40:21;;;;;;;;;;;17.80;99.90;;;;;;5094673;28;20074;-78
2023/07/25 08:42:48;;;;;;;;;;;17.80;99.90;;;;;;5094462;28;20266;-77
2023/07/25 08:45:14;;;;;;;;;;;17.50;99.90;;;;;;5094685;28;19923;-81
2023/07/25 08:47:40;;;;;;;;;;;17.40;99.90;;;;;;5112922;28;20296;-81
2023/07/25 08:50:13;;;;;;;;;;;17.30;99.90;;;;;;5111148;28;19928;-79
2023/07/25 08:52:39;;;;;;;;;;;17.30;99.90;;;;;;5094066;28;19919;-81
2023/07/25 08:55:05;;;;;;;;;;;17.40;99.90;;;;;;5100076;28;19931;-79
2023/07/25 08:57:31;;;;;;;;;;;17.70;99.90;;;;;;5094858;28;20285;-79
2023/07/25 08:59:57;;;;;;;;;;;18.00;99.90;;;;;;5111787;28;19919;-79
2023/07/25 09:02:22;;;;;;;;;;;18.30;99.90;;;;;;5111463;28;19924;-80
2023/07/25 09:04:48;;;;;;;;;;;18.50;99.90;;;;;;5111762;28;20004;-79
2023/07/25 09:07:14;;;;;;;;;;;18.70;99.90;;;;;;5112489;28;19963;-79
2023/07/25 09:09:39;;;;;;;;;;;18.60;99.90;;;;;;5112342;28;19931;-79
2023/07/25 09:12:07;;;;;;;;;;;18.40;99.90;;;;;;5111170;28;19943;-77
2023/07/25 09:14:33;;;;;;;;;;;18.40;99.90;;;;;;5110962;28;19927;-82
2023/07/25 09:16:58;;;;;;;;;;;18.60;99.90;;;;;;5111218;28;19924;-80
2023/07/25 09:19:24;;;;;;;;;;;18.70;99.90;;;;;;5093611;28;20250;-81
2023/07/25 09:21:51;;;;;;;;;;;18.70;99.90;;;;;;5094140;28;19943;-81
2023/07/25 09:24:16;;;;;;;;;;;18.60;99.90;;;;;;5111664;28;19928;-78
2023/07/25 09:26:52;;;;;;;;;;;18.60;99.90;;;;;;5110824;28;20326;-78
2023/07/25 09:29:18;;;;;;;;;;;18.60;99.90;;;;;;5111720;28;19950;-78
2023/07/25 09:31:44;;;;;;;;;;;18.60;99.90;;;;;;5111017;28;20447;-78
2023/07/25 09:34:13;;;;;;;;;;;18.70;99.90;;;;;;5111533;28;19920;-78
2023/07/25 09:36:39;;;;;;;;;;;18.60;99.90;;;;;;5111807;28;19980;-79
2023/07/25 09:39:05;;;;;;;;;;;18.40;99.90;;;;;;5111542;28;19963;-79
2023/07/25 09:41:34;;;;;;;;;;;18.30;99.90;;;;;;5110948;28;19927;-77
2023/07/25 09:44:05;;;;;;;;;;;18.20;99.90;;;;;;5111229;28;20289;-79
2023/07/25 09:46:31;;;;;;;;;;;18.30;99.90;;;;;;5111202;28;20377;-78
2023/07/25 09:48:57;;;;;;;;;;;18.30;99.90;;;;;;5111390;28;19930;-78
2023/07/25 09:51:22;;;;;;;;;;;18.40;99.90;;;;;;5111441;28;19931;-80
2023/07/25 09:53:53;;;;;;;;;;;18.50;99.90;;;;;;5111688;28;19977;-81
2023/07/25 09:56:24;;;;;;;;;;;18.90;99.90;;;;;;5110822;28;19924;-78
2023/07/25 09:58:51;;;;;;;;;;;19.20;99.90;;;;;;5110383;28;20014;-75
2023/07/25 10:01:17;;;;;;;;;;;19.20;99.90;;;;;;5110913;28;20332;-77
2023/07/25 10:03:46;;;;;;;;;;;19.10;99.90;;;;;;5110646;28;19977;-80
2023/07/25 10:06:28;;;;;;;;;;;19.00;99.90;;;;;;5111817;28;20006;-79
2023/07/25 10:08:55;;;;;;;;;;;19.00;99.90;;;;;;5110681;28;20003;-76
2023/07/25 10:11:21;;;;;;;;;;;19.20;99.90;;;;;;5094270;28;19920;-80
2023/07/25 10:13:54;;;;;;;;;;;19.30;99.90;;;;;;5110815;28;19928;-80
2023/07/25 10:16:21;;;;;;;;;;;19.30;99.90;;;;;;5094296;28;20002;-80
2023/07/25 10:18:54;;;;;;;;;;;19.20;99.90;;;;;;5096740;28;19931;-77
2023/07/25 10:21:24;;;;;;;;;;;19.20;99.90;;;;;;5094309;28;19920;-77
2023/07/25 10:23:53;;;;;;;;;;;19.20;99.90;;;;;;5093895;28;20349;-77
2023/07/25 10:26:20;;;;;;;;;;;19.00;99.90;;;;;;5094385;28;20019;-78
2023/07/25 10:28:46;;;;;;;;;;;18.80;99.90;;;;;;5093926;28;20316;-77
2023/07/25 10:31:30;;;;;;;;;;;18.70;99.90;;;;;;5077509;28;20014;-81
2023/07/25 10:33:58;;;;;;;;;;;18.60;99.90;;;;;;5077390;28;20659;-81
2023/07/25 10:36:24;;;;;;;;;;;18.60;99.90;;;;;;5094371;28;19928;-79
2023/07/25 10:38:52;;;;;;;;;;;18.80;99.90;;;;;;5076750;28;19930;-82
2023/07/25 10:41:19;;;;;;;;;;;19.10;99.90;;;;;;5093623;28;19920;-82
2023/07/25 10:43:45;;;;;;;;;;;19.30;99.90;;;;;;5093493;28;20225;-78
2023/07/25 10:46:14;;;;;;;;;;;19.50;99.90;;;;;;5094735;28;20035;-82
2023/07/25 10:48:46;;;;;;;;;;;19.40;99.90;;;;;;5093764;28;19974;-80
2023/07/25 10:51:13;;;;;;;;;;;19.20;99.90;;;;;;5111756;28;19963;-78
2023/07/25 10:53:41;;;;;;;;;;;19.10;99.90;;;;;;5113645;28;19926;-81
2023/07/25 10:56:07;;;;;;;;;;;19.00;99.90;;;;;;5117641;28;19920;-78
2023/07/25 10:58:39;;;;;;;;;;;19.00;99.90;;;;;;5116466;28;19928;-78
2023/07/25 11:01:05;;;;;;;;;;;19.10;99.90;;;;;;5113856;28;19923;-80
2023/07/25 11:03:32;;;;;;;;;;;19.30;99.90;;;;;;5114321;28;19923;-79
2023/07/25 11:06:09;;;;;;;;;;;19.20;99.90;;;;;;5113530;28;19931;-78
2023/07/25 11:08:36;;;;;;;;;;;19.10;99.90;;;;;;5112838;28;19932;-78
2023/07/25 11:11:02;;;;;;;;;;;19.10;99.90;;;;;;5114022;28;19959;-81
2023/07/25 11:13:29;;;;;;;;;;;19.10;99.90;;;;;;5113464;28;19971;-79
2023/07/25 11:15:55;;;;;;;;;;;19.20;99.90;;;;;;5113599;28;20392;-78
2023/07/25 11:18:21;;;;;;;;;;;19.30;99.90;;;;;;5113872;28;19920;-74
2023/07/25 11:21:06;;;;;;;;;;;19.50;99.90;;;;;;5113636;28;19927;-77
2023/07/25 11:23:32;;;;;;;;;;;19.50;99.90;;;;;;5109032;28;19920;-75
2023/07/25 11:25:59;;;;;;;;;;;19.60;99.90;;;;;;5113540;28;20391;-76
2023/07/25 11:28:26;;;;;;;;;;;19.90;99.90;;;;;;5113047;28;20408;-80
2023/07/25 11:30:53;;;;;;;;;;;20.10;99.90;;;;;;5114956;28;19924;-79
2023/07/25 11:33:19;;;;;;;;;;;20.20;99.90;;;;;;5113202;28;19923;-81
2023/07/25 11:35:51;;;;;;;;;;;20.00;99.90;;;;;;5112933;28;20368;-81
2023/07/25 11:38:16;;;;;;;;;;;19.80;99.90;;;;;;5112977;28;19923;-77
2023/07/25 11:40:42;;;;;;;;;;;19.60;99.90;;;;;;5112830;28;19930;-80
2023/07/25 11:43:11;;;;;;;;;;;19.70;99.90;;;;;;5112609;28;19924;-79
2023/07/25 11:45:39;;;;;;;;;;;19.90;99.90;;;;;;5112672;28;19920;-79
2023/07/25 11:48:08;;;;;;;;;;;19.80;99.90;;;;;;5114184;28;19926;-77
2023/07/25 11:50:34;;;;;;;;;;;19.80;99.90;;;;;;5112635;28;19931;-78
2023/07/25 11:53:04;;;;;;;;;;;19.80;99.90;;;;;;5113622;28;20374;-77
2023/07/25 11:55:31;;;;;;;;;;;19.80;99.90;;;;;;5113787;28;20318;-82
2023/07/25 11:58:00;;;;;;;;;;;19.90;99.90;;;;;;5111987;28;19935;-81
2023/07/25 12:00:37;;;;;;;;;;;19.90;99.90;;;;;;5113060;28;20288;-79
2023/07/25 12:03:03;;;;;;;;;;;19.80;99.90;;;;;;5095875;28;19977;-76
2023/07/25 12:05:29;;;;;;;;;;;19.90;99.90;;;;;;5112887;28;19927;-75
2023/07/25 12:08:02;;;;;;;;;;;20.00;99.90;;;;;;5112195;28;19919;-79
2023/07/25 12:10:34;;;;;;;;;;;20.10;99.90;;;;;;5097738;28;20392;-79
2023/07/25 12:13:10;;;;;;;;;;;20.00;99.60;;;;;;5115037;28;19920;-78
2023/07/25 12:15:49;;;;;;;;;;;19.90;99.90;;;;;;5112724;28;19928;-83
2023/07/25 12:18:28;;;;;;;;;;;19.80;99.90;;;;;;5113147;28;19936;-77
2023/07/25 12:20:55;;;;;;;;;;;19.70;99.90;;;;;;5111922;28;19920;-78
2023/07/25 12:23:30;;;;;;;;;;;19.70;99.20;;;;;;5112293;28;19931;-77
2023/07/25 12:25:57;;;;;;;;;;;19.80;99.50;;;;;;5111687;28;20414;-80
2023/07/25 12:28:23;;;;;;;;;;;19.90;99.00;;;;;;5112061;28;20399;-81
2023/07/25 12:30:49;;;;;;;;;;;19.90;99.20;;;;;;5094944;28;19928;-79
2023/07/25 12:33:18;;;;;;;;;;;20.00;99.60;;;;;;5113813;28;19923;-79
2023/07/25 12:35:50;;;;;;;;;;;20.00;99.00;;;;;;5096233;28;20298;-76
2023/07/25 12:38:17;;;;;;;;;;;20.20;99.90;;;;;;5112914;28;19931;-80
2023/07/25 12:40:42;;;;;;;;;;;20.50;99.30;;;;;;5111604;28;19924;-78
2023/07/25 12:43:14;;;;;;;;;;;20.60;98.50;;;;;;5113472;28;19931;-82
2023/07/25 12:45:39;;;;;;;;;;;20.70;98.90;;;;;;5095377;28;19920;-80
2023/07/25 12:48:05;;;;;;;;;;;20.70;99.20;;;;;;5112557;28;20071;-79
2023/07/25 12:50:31;;;;;;;;;;;20.70;99.10;;;;;;5074815;28;20007;-81
2023/07/25 12:52:57;;;;;;;;;;;20.50;99.70;;;;;;5074648;28;19924;-79
2023/07/25 12:55:24;;;;;;;;;;;20.30;99.90;;;;;;5075385;28;20348;-77
2023/07/25 12:57:53;;;;;;;;;;;20.20;99.90;;;;;;5092040;28;19939;-77
2023/07/25 13:00:19;;;;;;;;;;;20.00;99.90;;;;;;5091973;28;19920;-75
2023/07/25 13:02:45;;;;;;;;;;;19.70;99.90;;;;;;5074894;28;20033;-81
2023/07/25 13:05:12;;;;;;;;;;;19.60;99.90;;;;;;5076035;28;20391;-80
2023/07/25 13:07:39;;;;;;;;;;;19.40;98.30;;;;;;5091493;28;20003;-77
2023/07/25 13:10:06;;;;;;;;;;;19.00;99.20;;;;;;5090791;28;19928;-77
2023/07/25 13:12:33;;;;;;;;;;;18.80;99.90;;;;;;5074097;28;20349;-76
2023/07/25 13:14:59;;;;;;;;;;;18.70;99.90;;;;;;5090669;28;19924;-77
2023/07/25 13:17:26;;;;;;;;;;;18.50;99.10;;;;;;5091567;28;19924;-77
2023/07/25 13:19:52;;;;;;;;;;;18.80;99.90;;;;;;5091847;28;20013;-78
2023/07/25 13:22:17;;;;;;;;;;;19.40;99.90;;;;;;5090951;28;20341;-80
2023/07/25 13:24:43;;;;;;;;;;;20.00;99.90;;;;;;5090642;28;20040;-79
2023/07/25 13:27:10;;;;;;;;;;;20.50;99.50;;;;;;5091251;28;20018;-79
2023/07/25 13:29:36;;;;;;;;;;;20.90;98.60;;;;;;5090434;28;19935;-76
2023/07/25 13:32:02;;;;;;;;;;;20.90;98.50;;;;;;5073539;28;19924;-75
2023/07/25 13:34:29;;;;;;;;;;;20.40;95.50;;;;;;5057248;28;19924;-78
2023/07/25 13:36:54;;;;;;;;;;;20.00;97.00;;;;;;5092168;28;19978;-77
2023/07/25 13:39:20;;;;;;;;;;;19.80;98.00;;;;;;5091089;28;20385;-76
2023/07/25 13:41:46;;;;;;;;;;;19.50;98.40;;;;;;5090668;28;19974;-76
2023/07/25 13:44:11;;;;;;;;;;;19.30;97.70;;;;;;5088941;28;19920;-77
2023/07/25 13:46:37;;;;;;;;;;;19.00;97.90;;;;;;5090828;28;20676;-79
2023/07/25 13:49:03;;;;;;;;;;;18.90;97.30;;;;;;5090121;28;20400;-80
2023/07/25 13:51:28;;;;;;;;;;;19.10;98.60;;;;;;5112448;28;20006;-79
2023/07/25 13:53:55;;;;;;;;;;;19.60;99.40;;;;;;5115768;28;19984;-80
2023/07/25 13:56:21;;;;;;;;;;;20.00;98.50;;;;;;5115432;28;19986;-77
2023/07/25 13:58:48;;;;;;;;;;;20.00;96.60;;;;;;5115344;28;20392;-76
2023/07/25 14:01:19;;;;;;;;;;;19.80;97.10;;;;;;5116413;28;19959;-79
2023/07/25 14:03:45;;;;;;;;;;;19.60;97.30;;;;;;5115143;28;20602;-76
2023/07/25 14:06:14;;;;;;;;;;;19.80;98.70;;;;;;5116491;27;19977;-81
2023/07/25 14:08:39;;;;;;;;;;;19.80;98.70;;;;;;5114944;28;19924;-79
2023/07/25 14:11:05;;;;;;;;;;;20.00;99.90;;;;;;5097064;28;20377;-79
2023/07/25 14:13:30;;;;;;;;;;;20.30;99.80;;;;;;5114861;28;19975;-75